createdAt,value
2017-04-05T00:00:49.318Z,94.60
2017-04-05T00:01:49.337Z,94.50
2017-04-05T00:02:50.017Z,94.50
2017-04-05T00:03:50.843Z,94.50
2017-04-05T00:04:51.637Z,94.50
2017-04-05T00:05:51.604Z,94.50
2017-04-05T00:06:51.545Z,94.50
2017-04-05T00:07:51.572Z,94.50
2017-04-05T00:08:52.691Z,94.50
2017-04-05T00:09:52.435Z,94.60
2017-04-05T00:10:52.401Z,94.50
2017-04-05T00:11:52.424Z,94.60
2017-04-05T00:12:53.131Z,94.60
2017-04-05T00:13:53.367Z,94.50
2017-04-05T00:14:54.104Z,94.60
2017-04-05T00:15:54.188Z,94.60
2017-04-05T00:16:54.205Z,94.60
2017-04-05T00:17:54.187Z,95.00
2017-04-05T00:18:54.484Z,94.70
2017-04-05T00:19:54.212Z,94.70
2017-04-05T00:20:53.948Z,94.70
2017-04-05T00:21:54.002Z,94.70
2017-04-05T00:22:54.005Z,94.70
2017-04-05T00:23:54.389Z,94.70
2017-04-05T00:24:54.339Z,94.70
2017-04-05T00:25:55.061Z,94.80
2017-04-05T00:26:55.791Z,94.80
2017-04-05T00:27:55.737Z,94.70
2017-04-05T00:28:56.080Z,94.60
2017-04-05T00:29:56.139Z,94.60
2017-04-05T00:30:56.163Z,94.60
2017-04-05T00:31:56.128Z,94.60
2017-04-05T00:32:56.827Z,94.60
2017-04-05T00:33:57.225Z,94.70
2017-04-05T00:34:57.276Z,94.70
2017-04-05T00:35:57.263Z,94.70
2017-04-05T00:36:57.288Z,94.70
2017-04-05T00:37:58.007Z,94.70
2017-04-05T00:38:59.076Z,94.70
2017-04-05T00:39:59.064Z,94.70
2017-04-05T00:40:59.031Z,94.70
2017-04-05T00:41:58.999Z,94.70
2017-04-05T00:42:58.760Z,94.70
2017-04-05T00:44:02.025Z,94.70
2017-04-05T00:45:02.018Z,94.70
2017-04-05T00:46:02.079Z,94.70
2017-04-05T00:47:02.047Z,94.70
2017-04-05T00:48:02.128Z,94.60
2017-04-05T00:49:02.175Z,94.60
2017-04-05T00:50:02.146Z,94.70
2017-04-05T00:52:32.860Z,94.60
2017-04-05T00:53:32.833Z,94.60
2017-04-05T00:54:32.835Z,94.70
2017-04-05T00:55:32.790Z,94.80
2017-04-05T00:56:32.761Z,94.90
2017-04-05T00:57:32.748Z,95.00
2017-04-05T00:58:32.742Z,95.00
2017-04-05T00:59:33.755Z,95.10
2017-04-05T01:00:33.793Z,95.10
2017-04-05T01:01:33.826Z,95.10
2017-04-05T01:02:33.890Z,95.20
2017-04-05T01:03:34.595Z,95.20
2017-04-05T01:04:34.987Z,95.20
2017-04-05T01:05:34.964Z,95.20
2017-04-05T01:06:34.678Z,95.20
2017-04-05T01:07:34.777Z,95.20
2017-04-05T01:08:34.762Z,95.30
2017-04-05T01:09:35.082Z,95.20
2017-04-05T01:10:35.127Z,95.20
2017-04-05T01:11:35.097Z,95.20
2017-04-05T01:12:35.198Z,95.20
2017-04-05T01:13:35.130Z,95.10
2017-04-05T01:14:35.297Z,95.10
2017-04-05T01:15:35.989Z,95.10
2017-04-05T01:16:35.994Z,95.10
2017-04-05T01:17:35.982Z,95.10
2017-04-05T01:18:35.953Z,95.10
2017-04-05T01:19:36.358Z,95.10
2017-04-05T01:20:36.378Z,95.10
2017-04-05T01:21:36.354Z,95.20
2017-04-05T01:22:37.073Z,95.20
2017-04-05T01:23:37.966Z,95.40
2017-04-05T01:24:38.329Z,95.20
2017-04-05T01:25:39.044Z,95.20
2017-04-05T01:26:38.996Z,95.20
2017-04-05T01:27:38.961Z,95.20
2017-04-05T01:28:39.630Z,95.20
2017-04-05T01:29:40.182Z,95.30
2017-04-05T01:30:39.917Z,95.50
2017-04-05T01:31:39.888Z,95.30
2017-04-05T01:32:39.910Z,95.30
2017-04-05T01:33:40.637Z,95.30
2017-04-05T01:34:41.656Z,95.60
2017-04-05T01:35:42.431Z,95.30
2017-04-05T01:36:42.383Z,95.30
2017-04-05T01:37:43.177Z,95.30
2017-04-05T01:38:43.102Z,95.30
2017-04-05T01:39:43.095Z,95.40
2017-04-05T01:40:43.832Z,95.40
2017-04-05T01:41:43.900Z,95.50
2017-04-05T01:42:43.926Z,95.50
2017-04-05T01:43:43.958Z,95.60
2017-04-05T01:44:44.257Z,95.60
2017-04-05T01:45:44.196Z,95.70
2017-04-05T01:46:44.873Z,95.60
2017-04-05T01:47:44.880Z,95.70
2017-04-05T01:48:44.903Z,95.70
2017-04-05T01:49:45.202Z,95.70
2017-04-05T01:50:45.242Z,95.80
2017-04-05T01:51:45.761Z,95.80
2017-04-05T01:52:46.446Z,95.80
2017-04-05T01:53:46.531Z,95.80
2017-04-05T01:54:46.830Z,95.80
2017-04-05T01:55:46.823Z,95.80
2017-04-05T01:56:46.858Z,95.80
2017-04-05T01:57:47.552Z,95.80
2017-04-05T01:58:47.603Z,95.80
2017-04-05T01:59:47.963Z,95.80
2017-04-05T02:01:48.915Z,95.80
2017-04-05T02:02:48.861Z,95.80
2017-04-05T02:03:48.915Z,95.80
2017-04-05T02:04:49.218Z,96.00
2017-04-05T02:05:49.928Z,95.80
2017-04-05T02:06:49.890Z,95.80
2017-04-05T02:07:49.830Z,95.80
2017-04-05T02:08:49.817Z,95.80
2017-04-05T02:09:50.108Z,95.80
2017-04-05T02:10:50.106Z,95.90
2017-04-05T02:11:50.089Z,95.90
2017-04-05T02:12:50.846Z,95.90
2017-04-05T02:13:51.220Z,95.90
2017-04-05T02:14:52.249Z,95.90
2017-04-05T02:15:52.945Z,95.80
2017-04-05T02:16:53.078Z,95.80
2017-04-05T02:17:53.776Z,95.80
2017-04-05T02:18:53.784Z,95.70
2017-04-05T02:19:54.091Z,95.70
2017-04-05T02:20:54.108Z,95.70
2017-04-05T02:21:54.106Z,95.70
2017-04-05T02:22:54.181Z,95.70
2017-04-05T02:23:54.119Z,95.70
2017-04-05T02:24:54.449Z,95.80
2017-04-05T02:25:55.235Z,96.10
2017-04-05T02:26:55.215Z,96.10
2017-04-05T02:27:55.228Z,95.80
2017-04-05T02:28:55.207Z,95.80
2017-04-05T02:29:56.813Z,95.80
2017-04-05T02:30:56.767Z,95.80
2017-04-05T02:31:56.731Z,95.80
2017-04-05T02:32:56.664Z,95.80
2017-04-05T02:33:57.367Z,96.10
2017-04-05T02:34:58.514Z,95.80
2017-04-05T02:35:59.034Z,95.80
2017-04-05T02:36:59.817Z,95.80
2017-04-05T02:37:59.723Z,95.70
2017-04-05T02:38:59.734Z,95.70
2017-04-05T02:40:00.104Z,95.70
2017-04-05T02:41:00.087Z,95.60
2017-04-05T02:42:00.859Z,95.60
2017-04-05T02:43:00.793Z,95.60
2017-04-05T02:44:00.758Z,95.60
2017-04-05T02:45:01.086Z,95.50
2017-04-05T02:46:01.065Z,95.60
2017-04-05T02:47:01.069Z,95.60
2017-04-05T02:48:01.057Z,95.50
2017-04-05T02:49:01.743Z,95.50
2017-04-05T02:50:02.054Z,95.50
2017-04-05T02:51:02.045Z,95.50
2017-04-05T02:52:02.099Z,95.60
2017-04-05T02:53:02.858Z,95.60
2017-04-05T02:54:02.813Z,95.60
2017-04-05T02:55:03.656Z,95.40
2017-04-05T02:56:03.596Z,95.60
2017-04-05T02:57:03.554Z,95.60
2017-04-05T02:58:03.521Z,95.70
2017-04-05T02:59:03.578Z,95.60
2017-04-05T03:00:04.666Z,95.70
2017-04-05T03:01:04.716Z,95.70
2017-04-05T03:02:04.739Z,95.70
2017-04-05T03:03:04.692Z,95.70
2017-04-05T03:04:04.669Z,95.70
2017-04-05T03:05:04.996Z,95.60
2017-04-05T03:06:04.985Z,95.60
2017-04-05T03:07:04.928Z,95.60
2017-04-05T03:08:04.950Z,95.60
2017-04-05T03:09:05.954Z,95.60
2017-04-05T03:10:06.302Z,95.60
2017-04-05T03:11:07.000Z,95.60
2017-04-05T03:12:06.969Z,95.60
2017-04-05T03:13:06.970Z,95.60
2017-04-05T03:14:06.955Z,95.60
2017-04-05T03:15:07.250Z,95.60
2017-04-05T03:16:08.015Z,95.60
2017-04-05T03:17:07.982Z,95.60
2017-04-05T03:18:08.713Z,95.70
2017-04-05T03:19:08.719Z,96.00
2017-04-05T03:20:12.150Z,95.70
2017-04-05T03:21:12.107Z,95.70
2017-04-05T03:22:12.842Z,95.80
2017-04-05T03:23:20.839Z,95.80
2017-04-05T03:24:20.905Z,95.70
2017-04-05T03:25:21.312Z,95.70
2017-04-05T03:26:21.321Z,95.70
2017-04-05T03:27:21.304Z,95.70
2017-04-05T03:28:21.268Z,95.70
2017-04-05T03:29:21.950Z,95.70
2017-04-05T03:30:22.249Z,95.70
2017-04-05T03:31:22.197Z,95.70
2017-04-05T03:32:22.211Z,95.90
2017-04-05T03:33:22.993Z,95.70
2017-04-05T03:34:22.960Z,95.70
2017-04-05T03:35:23.381Z,95.60
2017-04-05T03:36:23.421Z,95.60
2017-04-05T03:37:23.445Z,95.60
2017-04-05T03:38:23.475Z,95.60
2017-04-05T03:39:23.940Z,95.60
2017-04-05T03:40:23.944Z,95.60
2017-04-05T03:41:24.765Z,95.60
2017-04-05T03:42:24.739Z,95.60
2017-04-05T03:43:24.746Z,95.50
2017-04-05T03:44:24.807Z,95.50
2017-04-05T03:45:25.186Z,95.50
2017-04-05T03:46:25.191Z,95.50
2017-04-05T03:47:25.192Z,95.50
2017-04-05T03:48:24.968Z,95.60
2017-04-05T03:49:24.984Z,95.60
2017-04-05T03:50:25.391Z,95.80
2017-04-05T03:51:26.098Z,95.60
2017-04-05T03:52:26.244Z,95.60
2017-04-05T03:53:26.228Z,95.60
2017-04-05T03:54:26.987Z,95.60
2017-04-05T03:55:27.163Z,95.60
2017-04-05T03:56:27.148Z,95.60
2017-04-05T03:57:27.205Z,95.70
2017-04-05T03:58:27.108Z,95.60
2017-04-05T03:59:27.057Z,95.70
2017-04-05T04:00:28.139Z,96.00
2017-04-05T04:01:28.141Z,95.70
2017-04-05T04:02:28.114Z,95.70
2017-04-05T04:03:28.832Z,95.70
2017-04-05T04:04:28.781Z,96.00
2017-04-05T04:05:28.800Z,95.70
2017-04-05T04:06:28.779Z,95.70
2017-04-05T04:07:28.750Z,95.70
2017-04-05T04:08:28.707Z,95.70
2017-04-05T04:09:28.474Z,95.70
2017-04-05T04:10:29.504Z,95.70
2017-04-05T04:11:29.535Z,95.70
2017-04-05T04:12:29.544Z,95.70
2017-04-05T04:13:29.468Z,95.70
2017-04-05T04:14:29.417Z,95.70
2017-04-05T04:15:30.419Z,95.70
2017-04-05T04:16:30.361Z,95.70
2017-04-05T04:17:31.109Z,96.00
2017-04-05T04:18:31.063Z,95.70
2017-04-05T04:19:31.032Z,95.70
2017-04-05T04:20:31.375Z,95.60
2017-04-05T04:21:31.341Z,95.60
2017-04-05T04:22:31.374Z,95.60
2017-04-05T04:23:31.335Z,95.60
2017-04-05T04:24:31.293Z,95.60
2017-04-05T04:25:31.549Z,95.90
2017-04-05T04:26:32.310Z,95.60
2017-04-05T04:27:32.278Z,95.60
2017-04-05T04:28:32.220Z,95.40
2017-04-05T04:29:32.214Z,95.60
2017-04-05T04:30:32.470Z,95.60
2017-04-05T04:31:32.455Z,95.60
2017-04-05T04:32:32.458Z,95.60
2017-04-05T04:33:32.363Z,95.60
2017-04-05T04:34:32.281Z,95.60
2017-04-05T04:35:32.631Z,95.60
2017-04-05T04:36:33.312Z,95.60
2017-04-05T04:37:33.305Z,95.60
2017-04-05T04:38:33.286Z,95.70
2017-04-05T04:39:33.261Z,95.70
2017-04-05T04:40:33.518Z,95.70
2017-04-05T04:41:33.472Z,95.80
2017-04-05T04:42:34.196Z,95.80
2017-04-05T04:43:34.923Z,95.80
2017-04-05T04:44:35.617Z,95.80
2017-04-05T04:45:35.858Z,95.80
2017-04-05T04:46:35.909Z,95.80
2017-04-05T04:47:35.588Z,96.30
2017-04-05T04:48:36.671Z,96.50
2017-04-05T04:49:36.769Z,96.80
2017-04-05T04:50:37.217Z,96.90
2017-04-05T04:51:37.946Z,96.80
2017-04-05T04:52:38.645Z,96.60
2017-04-05T04:53:38.822Z,96.30
2017-04-05T04:54:40.218Z,96.30
2017-04-05T04:55:41.456Z,95.80
2017-04-05T04:57:41.583Z,95.40
2017-04-05T04:58:41.534Z,95.30
2017-04-05T04:59:41.523Z,95.20
2017-04-05T05:00:41.835Z,95.30
2017-04-05T05:01:41.919Z,95.40
2017-04-05T05:02:41.871Z,95.60
2017-04-05T05:03:41.825Z,95.50
2017-04-05T05:04:41.756Z,94.80
2017-04-05T05:05:42.122Z,94.30
2017-04-05T05:06:42.772Z,93.90
2017-04-05T05:07:42.742Z,93.40
2017-04-05T05:08:42.756Z,93.30
2017-04-05T05:09:43.965Z,92.70
2017-04-05T05:10:44.400Z,92.60
2017-04-05T05:11:45.185Z,92.20
2017-04-05T05:12:45.156Z,91.70
2017-04-05T05:13:45.144Z,91.50
2017-04-05T05:14:45.917Z,91.30
2017-04-05T05:15:46.244Z,91.10
2017-04-05T05:16:46.244Z,91.00
2017-04-05T05:17:46.148Z,91.00
2017-04-05T05:18:46.113Z,90.80
2017-04-05T05:19:46.098Z,90.50
2017-04-05T05:20:47.202Z,90.00
2017-04-05T05:21:47.215Z,89.00
2017-04-05T05:22:47.159Z,88.50
2017-04-05T05:23:47.205Z,88.30
2017-04-05T05:24:47.178Z,88.30
2017-04-05T05:25:47.470Z,88.20
2017-04-05T05:26:48.311Z,88.40
2017-04-05T05:27:48.265Z,88.50
2017-04-05T05:28:48.034Z,88.80
2017-04-05T05:29:47.905Z,89.00
2017-04-05T05:30:48.178Z,89.50
2017-04-05T05:31:48.173Z,89.70
2017-04-05T05:32:48.174Z,90.00
2017-04-05T05:33:48.179Z,90.20
2017-04-05T05:34:48.241Z,90.30
2017-04-05T05:35:49.309Z,90.50
2017-04-05T05:36:49.259Z,90.60
2017-04-05T05:37:49.200Z,90.70
2017-04-05T05:38:49.174Z,90.80
2017-04-05T05:39:49.869Z,90.80
2017-04-05T05:40:50.201Z,90.90
2017-04-05T05:41:50.127Z,91.50
2017-04-05T05:42:50.869Z,91.60
2017-04-05T05:43:50.837Z,91.60
2017-04-05T05:44:50.768Z,91.70
2017-04-05T05:45:51.043Z,91.50
2017-04-05T05:46:50.991Z,91.90
2017-04-05T05:47:50.766Z,92.00
2017-04-05T05:48:50.660Z,92.10
2017-04-05T05:49:50.632Z,92.30
2017-04-05T05:50:51.064Z,92.40
2017-04-05T05:51:51.059Z,92.60
2017-04-05T05:52:51.014Z,92.70
2017-04-05T05:53:51.731Z,92.80
2017-04-05T05:54:52.445Z,92.80
2017-04-05T05:55:53.450Z,92.90
2017-04-05T05:56:53.502Z,92.90
2017-04-05T05:57:53.244Z,92.90
2017-04-05T05:58:53.345Z,92.90
2017-04-05T05:59:53.322Z,92.80
2017-04-05T06:00:53.592Z,92.90
2017-04-05T06:01:53.574Z,92.90
2017-04-05T06:02:53.507Z,92.90
2017-04-05T06:03:53.447Z,92.90
2017-04-05T06:04:53.233Z,92.80
2017-04-05T06:05:54.246Z,92.80
2017-04-05T06:06:54.222Z,92.80
2017-04-05T06:07:54.169Z,92.70
2017-04-05T06:08:54.940Z,92.70
2017-04-05T06:09:54.946Z,92.70
2017-04-05T06:10:55.404Z,92.60
2017-04-05T06:11:56.199Z,92.90
2017-04-05T06:12:56.160Z,92.50
2017-04-05T06:13:56.057Z,92.60
2017-04-05T06:14:56.849Z,92.60
2017-04-05T06:15:57.154Z,92.60
2017-04-05T06:16:57.193Z,92.60
2017-04-05T06:17:57.901Z,92.60
2017-04-05T06:18:57.876Z,92.70
2017-04-05T06:19:57.853Z,93.00
2017-04-05T06:20:58.208Z,93.20
2017-04-05T06:21:58.153Z,93.00
2017-04-05T06:22:58.843Z,92.90
2017-04-05T06:23:58.799Z,92.30
2017-04-05T06:24:58.777Z,92.30
2017-04-05T06:25:59.881Z,91.90
2017-04-05T06:26:59.952Z,91.60
2017-04-05T06:27:59.902Z,91.20
2017-04-05T06:28:59.902Z,91.00
2017-04-05T06:29:59.631Z,90.80
2017-04-05T06:31:00.008Z,90.60
2017-04-05T06:31:59.960Z,90.40
2017-04-05T06:32:59.958Z,90.40
2017-04-05T06:34:00.615Z,90.40
2017-04-05T06:35:00.583Z,90.10
2017-04-05T06:36:00.979Z,90.10
2017-04-05T06:37:01.001Z,90.10
2017-04-05T06:38:01.658Z,90.10
2017-04-05T06:39:01.651Z,90.00
2017-04-05T06:40:01.356Z,90.00
2017-04-05T06:41:01.670Z,89.90
2017-04-05T06:42:01.607Z,89.80
2017-04-05T06:43:02.261Z,89.80
2017-04-05T06:44:02.965Z,89.80
2017-04-05T06:45:02.918Z,90.00
2017-04-05T06:46:03.188Z,90.10
2017-04-05T06:47:03.315Z,90.20
2017-04-05T06:48:04.007Z,90.20
2017-04-05T06:49:04.002Z,90.30
2017-04-05T06:50:04.059Z,90.40
2017-04-05T06:51:04.328Z,90.50
2017-04-05T06:52:04.361Z,90.60
2017-04-05T06:53:05.155Z,90.60
2017-04-05T06:54:05.117Z,90.70
2017-04-05T06:55:05.199Z,90.70
2017-04-05T06:56:05.619Z,90.70
2017-04-05T06:57:06.315Z,90.80
2017-04-05T06:58:06.376Z,90.80
2017-04-05T06:59:06.448Z,90.80
2017-04-05T07:00:07.148Z,90.90
2017-04-05T07:01:07.575Z,90.90
2017-04-05T07:02:07.569Z,90.90
2017-04-05T07:03:08.734Z,90.90
2017-04-05T07:04:08.859Z,91.00
2017-04-05T07:05:09.062Z,91.00
2017-04-05T07:06:09.439Z,91.00
2017-04-05T07:07:09.461Z,91.10
2017-04-05T07:08:10.271Z,92.00
2017-04-05T07:09:10.327Z,91.20
2017-04-05T07:10:10.302Z,91.40
2017-04-05T07:11:11.425Z,91.50
2017-04-05T07:12:11.176Z,91.40
2017-04-05T07:13:10.962Z,91.40
2017-04-05T07:14:10.823Z,91.50
2017-04-05T07:15:10.815Z,91.60
2017-04-05T07:16:10.797Z,91.60
2017-04-05T07:17:11.215Z,91.70
2017-04-05T07:18:11.200Z,91.70
2017-04-05T07:19:11.194Z,91.80
2017-04-05T07:20:11.119Z,91.80
2017-04-05T07:21:11.153Z,91.80
2017-04-05T07:22:11.445Z,91.90
2017-04-05T07:23:11.507Z,91.90
2017-04-05T07:24:12.249Z,92.10
2017-04-05T07:25:12.241Z,91.80
2017-04-05T07:26:12.750Z,91.80
2017-04-05T07:27:12.911Z,91.80
2017-04-05T07:28:12.914Z,91.80
2017-04-05T07:29:12.851Z,91.80
2017-04-05T07:30:12.824Z,91.70
2017-04-05T07:31:12.824Z,91.70
2017-04-05T07:32:13.062Z,91.60
2017-04-05T07:33:13.096Z,91.50
2017-04-05T07:34:13.129Z,91.40
2017-04-05T07:35:13.933Z,91.40
2017-04-05T07:36:13.922Z,91.30
2017-04-05T07:37:14.245Z,91.30
2017-04-05T07:38:14.234Z,91.20
2017-04-05T07:39:14.169Z,91.20
2017-04-05T07:40:14.963Z,91.20
2017-04-05T07:41:14.977Z,91.20
2017-04-05T07:42:15.422Z,91.30
2017-04-05T07:43:16.150Z,91.80
2017-04-05T07:44:16.826Z,91.80
2017-04-05T07:45:16.830Z,91.80
2017-04-05T07:46:16.897Z,91.90
2017-04-05T07:47:17.382Z,92.00
2017-04-05T07:48:17.379Z,92.00
2017-04-05T07:49:17.108Z,91.50
2017-04-05T07:50:17.922Z,91.60
2017-04-05T07:51:18.614Z,91.70
2017-04-05T07:52:18.909Z,91.60
2017-04-05T07:53:18.676Z,91.50
2017-04-05T07:54:18.689Z,91.50
2017-04-05T07:55:18.644Z,91.50
2017-04-05T07:56:18.625Z,91.40
2017-04-05T07:57:18.764Z,91.30
2017-04-05T07:58:19.505Z,91.30
2017-04-05T07:59:20.210Z,91.30
2017-04-05T08:00:20.177Z,91.20
2017-04-05T08:01:20.145Z,91.30
2017-04-05T08:02:20.976Z,91.40
2017-04-05T08:04:21.089Z,91.50
2017-04-05T08:05:21.604Z,91.40
2017-04-05T08:06:21.623Z,91.30
2017-04-05T08:07:22.007Z,91.30
2017-04-05T08:08:21.987Z,91.10
2017-04-05T08:09:21.996Z,91.00
2017-04-05T08:10:22.050Z,91.00
2017-04-05T08:11:22.725Z,91.10
2017-04-05T08:12:23.174Z,91.10
2017-04-05T08:13:26.958Z,91.10
2017-04-05T08:14:26.791Z,91.10
2017-04-05T08:15:26.922Z,91.20
2017-04-05T08:16:26.977Z,91.10
2017-04-05T08:17:28.053Z,91.20
2017-04-05T08:18:28.116Z,91.20
2017-04-05T08:19:28.185Z,91.10
2017-04-05T08:20:28.145Z,91.10
2017-04-05T08:21:28.975Z,91.00
2017-04-05T08:22:30.078Z,90.80
2017-04-05T08:23:30.082Z,90.80
2017-04-05T08:25:30.189Z,90.70
2017-04-05T08:26:30.262Z,90.70
2017-04-05T08:27:31.133Z,90.80
2017-04-05T08:28:31.107Z,90.80
2017-04-05T08:29:31.381Z,90.70
2017-04-05T08:30:31.385Z,90.80
2017-04-05T08:31:32.118Z,90.90
2017-04-05T08:32:32.393Z,91.00
2017-04-05T08:33:32.407Z,91.00
2017-04-05T08:34:32.372Z,90.80
2017-04-05T08:35:32.394Z,90.60
2017-04-05T08:36:32.439Z,90.60
2017-04-05T08:37:33.459Z,90.50
2017-04-05T08:38:33.410Z,90.50
2017-04-05T08:39:33.399Z,90.40
2017-04-05T08:40:33.399Z,90.40
2017-04-05T08:41:33.461Z,90.40
2017-04-05T08:42:33.732Z,90.70
2017-04-05T08:43:33.696Z,90.30
2017-04-05T08:44:33.735Z,90.20
2017-04-05T08:45:33.723Z,90.50
2017-04-05T08:46:34.419Z,90.10
2017-04-05T08:47:34.736Z,90.10
2017-04-05T08:48:35.425Z,90.20
2017-04-05T08:49:35.387Z,90.20
2017-04-05T08:50:36.110Z,90.20
2017-04-05T08:51:36.743Z,90.20
2017-04-05T08:52:37.222Z,90.10
2017-04-05T08:53:37.248Z,90.00
2017-04-05T08:54:37.739Z,90.00
2017-04-05T08:55:38.479Z,90.00
2017-04-05T08:56:38.304Z,89.70
2017-04-05T08:57:39.409Z,89.50
2017-04-05T08:58:40.129Z,89.80
2017-04-05T08:59:40.197Z,88.90
2017-04-05T09:00:40.253Z,88.90
2017-04-05T09:01:40.265Z,88.70
2017-04-05T09:02:41.397Z,88.60
2017-04-05T09:03:41.929Z,88.50
2017-04-05T09:04:42.855Z,88.50
2017-04-05T09:05:43.615Z,88.60
2017-04-05T09:06:43.600Z,88.80
2017-04-05T09:07:43.797Z,88.70
2017-04-05T09:08:44.474Z,88.50
2017-04-05T09:09:44.449Z,88.30
2017-04-05T09:10:44.416Z,88.50
2017-04-05T09:11:45.128Z,89.00
2017-04-05T09:12:46.081Z,88.80
2017-04-05T09:13:46.793Z,88.70
2017-04-05T09:14:46.815Z,88.10
2017-04-05T09:15:47.617Z,86.90
2017-04-05T09:16:48.337Z,86.70
2017-04-05T09:17:48.643Z,86.00
2017-04-05T09:18:48.591Z,85.00
2017-04-05T09:19:48.605Z,85.10
2017-04-05T09:20:48.640Z,85.20
2017-04-05T09:21:48.664Z,85.20
2017-04-05T09:22:49.093Z,85.40
2017-04-05T09:23:49.868Z,85.50
2017-04-05T09:24:49.911Z,85.60
2017-04-05T09:25:50.007Z,85.70
2017-04-05T09:26:50.020Z,85.70
2017-04-05T09:27:50.016Z,85.70
2017-04-05T09:28:50.850Z,85.20
2017-04-05T09:29:50.854Z,85.20
2017-04-05T09:31:51.063Z,85.20
2017-04-05T09:32:51.391Z,84.90
2017-04-05T09:33:51.345Z,84.70
2017-04-05T09:34:51.377Z,84.60
2017-04-05T09:35:51.434Z,84.40
2017-04-05T09:36:52.209Z,84.50
2017-04-05T09:37:52.551Z,84.20
2017-04-05T09:38:52.573Z,84.00
2017-04-05T09:39:53.368Z,84.00
2017-04-05T09:40:53.370Z,84.10
2017-04-05T09:41:53.381Z,84.40
2017-04-05T09:42:53.807Z,84.50
2017-04-05T09:43:53.551Z,85.00
2017-04-05T09:44:53.579Z,84.90
2017-04-05T09:45:53.563Z,84.80
2017-04-05T09:46:53.570Z,84.40
2017-04-05T09:47:53.945Z,83.90
2017-04-05T09:48:53.982Z,84.40
2017-04-05T09:49:54.692Z,85.00
2017-04-05T09:50:55.402Z,85.40
2017-04-05T09:52:02.785Z,85.50
2017-04-05T09:53:03.849Z,85.60
2017-04-05T09:54:03.832Z,85.90
2017-04-05T09:55:04.619Z,85.80
2017-04-05T09:56:04.595Z,85.80
2017-04-05T09:57:04.647Z,85.90
2017-04-05T09:58:05.078Z,85.70
2017-04-05T09:59:05.863Z,85.60
2017-04-05T10:00:05.948Z,85.90
2017-04-05T10:01:05.959Z,84.20
2017-04-05T10:02:06.648Z,83.90
2017-04-05T10:03:07.759Z,83.60
2017-04-05T10:04:07.729Z,83.60
2017-04-05T10:05:07.732Z,83.80
2017-04-05T10:06:07.736Z,83.70
2017-04-05T10:07:07.732Z,83.70
2017-04-05T10:08:08.199Z,83.80
2017-04-05T10:09:08.261Z,83.50
2017-04-05T10:10:09.039Z,83.40
2017-04-05T10:11:09.013Z,83.10
2017-04-05T10:12:09.022Z,82.70
2017-04-05T10:13:09.103Z,81.90
2017-04-05T10:14:09.079Z,81.80
2017-04-05T10:15:09.822Z,81.90
2017-04-05T10:16:10.720Z,82.10
2017-04-05T10:17:11.475Z,81.90
2017-04-05T10:18:11.777Z,81.40
2017-04-05T10:19:13.205Z,80.50
2017-04-05T10:20:14.006Z,80.00
2017-04-05T10:21:13.916Z,79.80
2017-04-05T10:22:14.990Z,80.00
2017-04-05T10:23:15.317Z,80.10
2017-04-05T10:24:15.355Z,79.50
2017-04-05T10:25:15.331Z,79.20
2017-04-05T10:26:15.349Z,79.30
2017-04-05T10:27:15.354Z,79.40
2017-04-05T10:28:15.684Z,79.40
2017-04-05T10:29:15.639Z,79.10
2017-04-05T10:30:15.646Z,78.50
2017-04-05T10:31:15.610Z,77.80
2017-04-05T10:32:16.464Z,77.50
2017-04-05T10:33:16.852Z,77.40
2017-04-05T10:34:17.562Z,78.10
2017-04-05T10:35:17.566Z,77.00
2017-04-05T10:36:17.566Z,76.40
2017-04-05T10:37:17.526Z,76.10
2017-04-05T10:38:17.903Z,76.00
2017-04-05T10:39:18.199Z,74.70
2017-04-05T10:40:18.227Z,74.60
2017-04-05T10:41:18.185Z,74.90
2017-04-05T10:42:18.156Z,75.00
2017-04-05T10:43:18.529Z,75.60
2017-04-05T10:44:18.473Z,76.10
2017-04-05T10:45:19.181Z,76.50
2017-04-05T10:46:20.056Z,77.40
2017-04-05T10:47:20.070Z,76.60
2017-04-05T10:48:20.421Z,76.80
2017-04-05T10:49:20.408Z,77.00
2017-04-05T10:50:20.356Z,76.90
2017-04-05T10:51:21.135Z,76.90
2017-04-05T10:52:21.104Z,76.80
2017-04-05T10:53:21.385Z,76.50
2017-04-05T10:54:21.915Z,75.80
2017-04-05T10:55:22.609Z,75.60
2017-04-05T10:56:22.626Z,75.50
2017-04-05T10:57:23.165Z,75.10
2017-04-05T10:58:24.786Z,74.70
2017-04-05T10:59:24.823Z,74.50
2017-04-05T11:00:25.453Z,75.10
2017-04-05T11:01:25.397Z,74.30
2017-04-05T11:02:25.814Z,74.20
2017-04-05T11:03:26.141Z,74.50
2017-04-05T11:04:26.166Z,74.80
2017-04-05T11:05:26.926Z,75.30
2017-04-05T11:06:27.227Z,75.40
2017-04-05T11:07:27.213Z,76.10
2017-04-05T11:08:28.320Z,73.70
2017-04-05T11:09:28.310Z,72.40
2017-04-05T11:10:29.586Z,71.20
2017-04-05T11:11:29.799Z,71.60
2017-04-05T11:12:30.548Z,71.50
2017-04-05T11:13:30.940Z,71.30
2017-04-05T11:14:31.669Z,71.20
2017-04-05T11:15:31.670Z,71.30
2017-04-05T11:16:31.708Z,71.10
2017-04-05T11:17:31.642Z,70.90
2017-04-05T11:18:31.917Z,70.70
2017-04-05T11:19:31.901Z,70.40
2017-04-05T11:20:32.606Z,70.40
2017-04-05T11:21:33.402Z,70.90
2017-04-05T11:22:33.392Z,71.30
2017-04-05T11:23:34.553Z,71.20
2017-04-05T11:24:34.386Z,71.10
2017-04-05T11:25:34.904Z,70.50
2017-04-05T11:26:35.587Z,70.40
2017-04-05T11:27:35.528Z,70.20
2017-04-05T11:28:36.355Z,69.70
2017-04-05T11:29:37.152Z,69.70
2017-04-05T11:30:37.890Z,69.20
2017-04-05T11:31:38.574Z,68.90
2017-04-05T11:32:38.634Z,69.10
2017-04-05T11:33:39.741Z,69.20
2017-04-05T11:34:39.679Z,69.10
2017-04-05T11:35:39.662Z,68.50
2017-04-05T11:36:40.406Z,67.20
2017-04-05T11:37:40.416Z,67.20
2017-04-05T11:38:40.807Z,66.30
2017-04-05T11:39:41.535Z,66.20
2017-04-05T11:40:42.281Z,64.60
2017-04-05T11:41:42.332Z,64.80
2017-04-05T11:42:42.315Z,65.30
2017-04-05T11:43:42.568Z,64.80
2017-04-05T11:44:42.550Z,64.10
2017-04-05T11:45:42.626Z,63.80
2017-04-05T11:46:42.677Z,64.40
2017-04-05T11:47:42.684Z,64.30
2017-04-05T11:48:42.996Z,62.60
2017-04-05T11:49:42.832Z,61.70
2017-04-05T11:50:42.805Z,62.10
2017-04-05T11:51:42.821Z,61.40
2017-04-05T11:52:43.544Z,62.10
2017-04-05T11:53:43.878Z,62.50
2017-04-05T11:54:44.609Z,63.90
2017-04-05T11:55:44.657Z,64.80
2017-04-05T11:56:44.649Z,65.40
2017-04-05T11:57:44.596Z,65.60
2017-04-05T11:58:45.004Z,65.40
2017-04-05T11:59:45.001Z,65.20
2017-04-05T12:00:44.990Z,65.60
2017-04-05T12:01:44.983Z,65.70
2017-04-05T12:02:44.990Z,66.20
2017-04-05T12:03:45.438Z,65.40
2017-04-05T12:04:45.528Z,64.30
2017-04-05T12:07:12.213Z,62.30
2017-04-05T12:08:12.968Z,62.00
2017-04-05T12:09:13.334Z,61.60
2017-04-05T12:10:13.365Z,60.10
2017-04-05T12:12:13.371Z,58.30
2017-04-05T12:13:13.915Z,59.00
2017-04-05T12:14:14.292Z,58.10
2017-04-05T12:15:15.023Z,58.40
2017-04-05T12:16:15.868Z,57.00
2017-04-05T12:17:15.891Z,57.30
2017-04-05T12:18:15.873Z,56.80
2017-04-05T12:19:16.158Z,56.90
2017-04-05T12:20:16.545Z,57.30
2017-04-05T12:21:16.562Z,57.40
2017-04-05T12:22:16.581Z,57.50
2017-04-05T12:23:16.616Z,57.60
2017-04-05T12:24:17.682Z,57.80
2017-04-05T12:25:18.060Z,58.10
2017-04-05T12:26:18.093Z,59.00
2017-04-05T12:27:18.140Z,59.40
2017-04-05T12:28:18.131Z,59.50
2017-04-05T12:29:18.487Z,60.00
2017-04-05T12:30:18.575Z,59.90
2017-04-05T12:31:18.559Z,59.70
2017-04-05T12:32:18.351Z,59.50
2017-04-05T12:33:18.418Z,59.20
2017-04-05T12:34:18.927Z,59.30
2017-04-05T12:35:19.681Z,59.40
2017-04-05T12:36:19.648Z,59.60
2017-04-05T12:37:19.653Z,59.80
2017-04-05T12:38:19.705Z,60.00
2017-04-05T12:39:20.078Z,60.00
2017-04-05T12:40:20.847Z,60.20
2017-04-05T12:41:20.811Z,60.50
2017-04-05T12:42:21.568Z,61.00
2017-04-05T12:45:21.454Z,62.00
2017-04-05T12:46:21.438Z,62.30
2017-04-05T12:47:21.405Z,63.20
2017-04-05T12:48:21.396Z,63.80
2017-04-05T12:49:21.344Z,63.90
2017-04-05T12:50:21.703Z,64.50
2017-04-05T12:51:21.705Z,65.30
2017-04-05T12:52:21.752Z,65.20
2017-04-05T12:53:21.783Z,65.40
2017-04-05T12:54:21.850Z,65.10
2017-04-05T12:55:22.199Z,65.00
2017-04-05T12:56:22.265Z,65.20
2017-04-05T12:57:22.239Z,66.00
2017-04-05T12:58:22.289Z,66.40
2017-04-05T12:59:22.332Z,66.90
2017-04-05T13:00:22.743Z,67.00
2017-04-05T13:01:24.479Z,66.80
2017-04-05T13:02:24.573Z,66.60
2017-04-05T13:03:24.631Z,66.60
2017-04-05T13:04:25.378Z,66.50
2017-04-05T13:05:25.774Z,66.60
2017-04-05T13:06:26.543Z,66.90
2017-04-05T13:07:27.021Z,66.70